Time;durP1;ratioP1;P1;durP2;ratioP2;P2;SDS_P1;SDS_P2;PMS_P1;PMS_P2;Temp;Humidity;BMP_temperature;BMP_pressure;BME280_temperature;BME280_humidity;BME280_pressure;Samples;Min_cycle;Max_cycle;Signal;HPM_P1;HPM_P2
2023/05/05 00:02:11;;;;;;;15.63;3.78;;;;;;;;;;5071219;28;20464;-60
2023/05/05 00:04:37;;;;;;;13.50;4.20;;;;;;;;;;5071231;28;20033;-59
2023/05/05 00:07:03;;;;;;;16.52;3.50;;;;;;;;;;5071050;28;20610;-60
2023/05/05 00:09:29;;;;;;;20.73;3.83;;;;;;;;;;5070982;28;20027;-59
2023/05/05 00:11:55;;;;;;;15.52;3.30;;;;;;;;;;5071092;28;20477;-58
2023/05/05 00:14:22;;;;;;;10.10;2.50;;;;;;;;;;5071170;28;20035;-60
2023/05/05 00:16:48;;;;;;;16.30;3.53;;;;;;;;;;5071037;28;20045;-58
2023/05/05 00:19:14;;;;;;;10.80;3.05;;;;;;;;;;5071417;28;20028;-58
2023/05/05 00:21:40;;;;;;;13.32;3.10;;;;;;;;;;5070932;28;20025;-57
2023/05/05 00:24:06;;;;;;;18.10;3.17;;;;;;;;;;5071276;28;20415;-63
2023/05/05 00:26:32;;;;;;;12.65;3.30;;;;;;;;;;5071002;28;20110;-60
2023/05/05 00:28:58;;;;;;;14.23;3.63;;;;;;;;;;5070889;28;20515;-59
2023/05/05 00:31:25;;;;;;;12.45;2.58;;;;;;;;;;5070800;28;20116;-61
2023/05/05 00:33:51;;;;;;;16.85;3.50;;;;;;;;;;5071368;28;20048;-59
2023/05/05 00:36:18;;;;;;;21.75;3.80;;;;;;;;;;5071029;28;20341;-59
2023/05/05 00:38:44;;;;;;;15.23;3.58;;;;;;;;;;5070825;28;20029;-59
2023/05/05 00:41:10;;;;;;;18.35;3.95;;;;;;;;;;5070766;28;20024;-60
2023/05/05 00:43:36;;;;;;;14.23;3.50;;;;;;;;;;5070759;28;20028;-59
2023/05/05 00:46:08;;;;;;;20.17;3.70;;;;;;;;;;5070875;28;20082;-59
2023/05/05 00:48:34;;;;;;;16.48;3.65;;;;;;;;;;5070813;28;20021;-62
2023/05/05 00:51:00;;;;;;;13.60;3.25;;;;;;;;;;5070817;28;20473;-60
2023/05/05 00:53:26;;;;;;;16.15;3.15;;;;;;;;;;5070525;28;20036;-59
2023/05/05 00:55:52;;;;;;;12.77;3.38;;;;;;;;;;5069441;28;20063;-59
2023/05/05 00:58:18;;;;;;;19.40;3.28;;;;;;;;;;5070976;28;20115;-60
2023/05/05 01:00:44;;;;;;;13.82;3.05;;;;;;;;;;5070648;28;20481;-60
2023/05/05 01:03:14;;;;;;;11.15;2.92;;;;;;;;;;5070686;28;20032;-59
2023/05/05 01:06:01;;;;;;;11.68;3.17;;;;;;;;;;5070531;28;20066;-59
2023/05/05 01:08:33;;;;;;;11.85;3.22;;;;;;;;;;5086143;28;20385;-60
2023/05/05 01:11:02;;;;;;;10.05;3.13;;;;;;;;;;5070550;28;20024;-59
2023/05/05 01:13:53;;;;;;;15.52;4.65;;;;;;;;;;5070538;28;20063;-59
2023/05/05 01:16:40;;;;;;;16.50;3.42;;;;;;;;;;5067469;28;20043;-59
2023/05/05 01:19:06;;;;;;;10.50;3.78;;;;;;;;;;5070696;28;20048;-59
2023/05/05 01:21:38;;;;;;;13.35;3.47;;;;;;;;;;5071956;28;20021;-59
2023/05/05 01:24:04;;;;;;;19.73;4.03;;;;;;;;;;5073965;28;20120;-59
2023/05/05 01:26:37;;;;;;;17.17;4.78;;;;;;;;;;5074379;28;20071;-60
2023/05/05 01:29:22;;;;;;;24.98;5.13;;;;;;;;;;5073832;28;20558;-59
2023/05/05 01:31:50;;;;;;;14.15;5.45;;;;;;;;;;5074006;28;20024;-59
2023/05/05 01:34:18;;;;;;;27.00;6.70;;;;;;;;;;5073802;28;20025;-59
2023/05/05 01:36:46;;;;;;;14.52;6.03;;;;;;;;;;5073926;28;20086;-60
2023/05/05 01:39:15;;;;;;;19.20;6.05;;;;;;;;;;5073786;28;20025;-59
2023/05/05 01:41:48;;;;;;;21.58;6.47;;;;;;;;;;5073652;28;20036;-59
2023/05/05 01:44:17;;;;;;;13.52;6.13;;;;;;;;;;5073945;28;20413;-59
2023/05/05 01:46:43;;;;;;;15.80;5.95;;;;;;;;;;5073356;28;20113;-59
2023/05/05 01:49:09;;;;;;;18.77;6.60;;;;;;;;;;5073652;28;20111;-60
2023/05/05 01:51:36;;;;;;;14.75;6.07;;;;;;;;;;5073625;28;20484;-60
2023/05/05 01:54:04;;;;;;;17.92;6.20;;;;;;;;;;5073298;28;20044;-58
2023/05/05 01:56:31;;;;;;;24.73;6.70;;;;;;;;;;5073127;28;20044;-60
2023/05/05 01:58:58;;;;;;;17.55;5.90;;;;;;;;;;5073427;28;20096;-60
2023/05/05 02:01:25;;;;;;;19.00;7.53;;;;;;;;;;5073577;28;20021;-59
2023/05/05 02:03:52;;;;;;;17.73;7.35;;;;;;;;;;5088933;28;20033;-59
2023/05/05 02:06:20;;;;;;;17.38;5.30;;;;;;;;;;5073232;28;20508;-58
2023/05/05 02:08:47;;;;;;;17.45;5.63;;;;;;;;;;5072978;28;20028;-59
2023/05/05 02:11:13;;;;;;;14.32;5.53;;;;;;;;;;5073060;28;20393;-61
2023/05/05 02:13:41;;;;;;;10.85;4.15;;;;;;;;;;5073301;28;20020;-59
2023/05/05 02:16:08;;;;;;;10.43;5.32;;;;;;;;;;5072981;28;20029;-60
2023/05/05 02:18:35;;;;;;;11.63;5.70;;;;;;;;;;5073168;28;20032;-59
2023/05/05 02:21:01;;;;;;;17.63;5.22;;;;;;;;;;5073465;28;20025;-58
2023/05/05 02:23:28;;;;;;;21.20;7.03;;;;;;;;;;5072822;28;20074;-59
2023/05/05 02:26:02;;;;;;;15.93;6.90;;;;;;;;;;5073075;28;20024;-58
2023/05/05 02:28:47;;;;;;;18.50;6.90;;;;;;;;;;5072831;28;20083;-59
2023/05/05 02:31:15;;;;;;;23.30;8.52;;;;;;;;;;5072846;28;20070;-60
2023/05/05 02:33:42;;;;;;;15.52;6.63;;;;;;;;;;5071564;28;20020;-59
2023/05/05 02:36:14;;;;;;;19.77;6.63;;;;;;;;;;5072942;28;20024;-59
2023/05/05 02:38:41;;;;;;;17.27;6.78;;;;;;;;;;5072706;28;20439;-59
2023/05/05 02:41:08;;;;;;;17.92;6.90;;;;;;;;;;5072622;28;20032;-59
2023/05/05 02:43:36;;;;;;;18.88;6.82;;;;;;;;;;5072367;28;20028;-59
2023/05/05 02:46:02;;;;;;;25.77;7.40;;;;;;;;;;5072428;28;20227;-59
2023/05/05 02:48:28;;;;;;;13.32;5.38;;;;;;;;;;5072299;28;20035;-60
2023/05/05 02:50:54;;;;;;;15.10;5.15;;;;;;;;;;5071371;28;20354;-59
2023/05/05 02:53:23;;;;;;;10.95;3.40;;;;;;;;;;5072440;28;20531;-59
2023/05/05 02:55:51;;;;;;;15.00;4.53;;;;;;;;;;5072187;28;20370;-58
2023/05/05 02:58:22;;;;;;;12.30;3.85;;;;;;;;;;5072227;28;20099;-59
2023/05/05 03:01:06;;;;;;;15.38;4.40;;;;;;;;;;5072074;28;20020;-60
2023/05/05 03:03:39;;;;;;;11.10;3.70;;;;;;;;;;5072140;28;20064;-59
2023/05/05 03:06:05;;;;;;;16.00;3.53;;;;;;;;;;5072124;28;20016;-59
2023/05/05 03:08:43;;;;;;;9.10;3.67;;;;;;;;;;5072040;28;20046;-59
2023/05/05 03:11:23;;;;;;;11.73;3.58;;;;;;;;;;5072392;28;20032;-60
2023/05/05 03:13:50;;;;;;;17.30;4.70;;;;;;;;;;5071967;28;20038;-60
2023/05/05 03:16:17;;;;;;;12.10;4.60;;;;;;;;;;5071883;28;20021;-59
2023/05/05 03:18:45;;;;;;;19.23;4.93;;;;;;;;;;5071921;28;20439;-59
2023/05/05 03:21:11;;;;;;;17.08;4.63;;;;;;;;;;5071703;28;20045;-59
2023/05/05 03:23:37;;;;;;;14.27;5.45;;;;;;;;;;5071551;28;20024;-61
2023/05/05 03:26:03;;;;;;;13.77;4.88;;;;;;;;;;5087608;28;20035;-59
2023/05/05 03:28:29;;;;;;;12.55;5.60;;;;;;;;;;5071418;28;20551;-58
2023/05/05 03:30:56;;;;;;;13.80;5.70;;;;;;;;;;5071668;28;20035;-59
2023/05/05 03:33:22;;;;;;;14.23;5.72;;;;;;;;;;5071526;28;20052;-59
2023/05/05 03:35:48;;;;;;;16.23;5.70;;;;;;;;;;5071920;28;20055;-59
2023/05/05 03:38:14;;;;;;;13.82;6.95;;;;;;;;;;5087144;28;20104;-59
2023/05/05 03:40:40;;;;;;;19.40;6.60;;;;;;;;;;5086941;28;20027;-58
2023/05/05 03:43:06;;;;;;;18.23;7.00;;;;;;;;;;5071637;28;20020;-58
2023/05/05 03:45:32;;;;;;;20.92;8.63;;;;;;;;;;5071178;28;20032;-58
2023/05/05 03:47:58;;;;;;;18.80;6.65;;;;;;;;;;5071424;28;20031;-59
2023/05/05 03:50:24;;;;;;;18.42;7.80;;;;;;;;;;5071337;28;20020;-59
2023/05/05 03:52:51;;;;;;;19.73;8.85;;;;;;;;;;5071268;28;20032;-59
2023/05/05 03:55:17;;;;;;;20.17;9.32;;;;;;;;;;5071364;28;20029;-59
2023/05/05 03:57:44;;;;;;;27.85;10.55;;;;;;;;;;5071250;28;20487;-59
2023/05/05 04:00:11;;;;;;;27.40;11.50;;;;;;;;;;5071442;28;20020;-59
2023/05/05 04:02:37;;;;;;;24.17;11.32;;;;;;;;;;5069961;28;20028;-58
2023/05/05 04:05:03;;;;;;;29.45;11.38;;;;;;;;;;5071289;28;20142;-59
2023/05/05 04:07:29;;;;;;;33.65;12.55;;;;;;;;;;5071172;28;20435;-57
2023/05/05 04:09:55;;;;;;;31.02;14.20;;;;;;;;;;5071241;28;20052;-59
2023/05/05 04:12:21;;;;;;;27.92;12.75;;;;;;;;;;5069899;28;20070;-59
2023/05/05 04:14:47;;;;;;;23.52;11.50;;;;;;;;;;5071111;28;20103;-60
2023/05/05 04:17:13;;;;;;;31.20;12.63;;;;;;;;;;5071208;28;20029;-59
2023/05/05 04:19:39;;;;;;;25.33;11.85;;;;;;;;;;5069992;28;20020;-59
2023/05/05 04:22:05;;;;;;;25.25;12.20;;;;;;;;;;5070914;28;20085;-59
2023/05/05 04:24:31;;;;;;;27.52;12.50;;;;;;;;;;5071143;28;20305;-60
2023/05/05 04:26:57;;;;;;;25.90;10.45;;;;;;;;;;5071105;28;20185;-59
2023/05/05 04:29:23;;;;;;;24.63;10.63;;;;;;;;;;5071004;28;20202;-59
2023/05/05 04:31:49;;;;;;;26.42;8.52;;;;;;;;;;5071083;28;20013;-59
2023/05/05 04:34:15;;;;;;;22.40;6.97;;;;;;;;;;5070970;28;20052;-60
2023/05/05 04:36:42;;;;;;;18.90;5.97;;;;;;;;;;5070723;28;20405;-59
2023/05/05 04:39:08;;;;;;;17.95;6.18;;;;;;;;;;5070943;28;20028;-59
2023/05/05 04:41:34;;;;;;;25.10;6.10;;;;;;;;;;5071015;28;20025;-59
2023/05/05 04:44:00;;;;;;;23.10;5.13;;;;;;;;;;5070613;28;20449;-59
2023/05/05 04:46:26;;;;;;;18.73;5.25;;;;;;;;;;5069553;28;20024;-59
2023/05/05 04:48:52;;;;;;;18.67;4.00;;;;;;;;;;5070814;28;20020;-59
2023/05/05 04:51:18;;;;;;;21.10;4.28;;;;;;;;;;5070745;28;20043;-59
2023/05/05 04:53:45;;;;;;;25.33;4.30;;;;;;;;;;5070751;28;20059;-58
2023/05/05 04:56:11;;;;;;;18.90;3.80;;;;;;;;;;5071768;28;20024;-58
2023/05/05 04:58:37;;;;;;;21.58;3.65;;;;;;;;;;5074506;28;20021;-59
2023/05/05 05:01:03;;;;;;;13.43;4.45;;;;;;;;;;5074668;28;20082;-58
2023/05/05 05:03:30;;;;;;;18.02;3.70;;;;;;;;;;5074373;28;20099;-59
2023/05/05 05:05:56;;;;;;;20.23;4.20;;;;;;;;;;5074271;28;20496;-59
2023/05/05 05:08:22;;;;;;;19.70;3.78;;;;;;;;;;5074623;28;20085;-59
2023/05/05 05:10:48;;;;;;;17.50;3.90;;;;;;;;;;5074531;28;20033;-58
2023/05/05 05:13:14;;;;;;;16.33;5.05;;;;;;;;;;5074157;28;20032;-59
2023/05/05 05:15:41;;;;;;;31.33;5.57;;;;;;;;;;5074352;28;20020;-59
2023/05/05 05:18:07;;;;;;;15.77;3.67;;;;;;;;;;5074128;28;20020;-59
2023/05/05 05:20:33;;;;;;;16.65;4.15;;;;;;;;;;5074178;28;20039;-58
2023/05/05 05:23:03;;;;;;;20.10;4.63;;;;;;;;;;5074105;28;20031;-59
2023/05/05 05:25:29;;;;;;;17.83;3.63;;;;;;;;;;5074018;28;20138;-59
2023/05/05 05:27:55;;;;;;;16.88;3.53;;;;;;;;;;5074347;28;20021;-59
2023/05/05 05:30:21;;;;;;;21.55;3.33;;;;;;;;;;5074226;28;20048;-59
2023/05/05 05:32:47;;;;;;;18.25;3.17;;;;;;;;;;5073567;28;20075;-60
2023/05/05 05:35:13;;;;;;;20.20;3.63;;;;;;;;;;5073854;28;20508;-58
2023/05/05 05:37:39;;;;;;;15.57;3.60;;;;;;;;;;5073849;28;20060;-59
2023/05/05 05:40:06;;;;;;;19.05;3.03;;;;;;;;;;5073877;28;20090;-59
2023/05/05 05:42:32;;;;;;;18.92;4.07;;;;;;;;;;5074177;28;20028;-59
2023/05/05 05:44:58;;;;;;;18.15;3.22;;;;;;;;;;5073545;28;20090;-59
2023/05/05 05:47:24;;;;;;;12.13;3.60;;;;;;;;;;5073648;28;20477;-59
2023/05/05 05:49:51;;;;;;;17.50;3.42;;;;;;;;;;5070974;28;20059;-59
2023/05/05 05:52:17;;;;;;;19.48;3.40;;;;;;;;;;5073714;28;20119;-60
2023/05/05 05:54:43;;;;;;;17.70;3.40;;;;;;;;;;5065020;28;20397;-59
2023/05/05 05:57:09;;;;;;;14.32;3.20;;;;;;;;;;5053319;28;20551;-59
2023/05/05 05:59:35;;;;;;;14.52;3.60;;;;;;;;;;5053621;28;20021;-58
2023/05/05 06:02:01;;;;;;;18.60;3.35;;;;;;;;;;5053540;28;20079;-59
2023/05/05 06:04:27;;;;;;;21.13;3.35;;;;;;;;;;5053449;28;20028;-60
2023/05/05 06:06:53;;;;;;;19.92;3.10;;;;;;;;;;5062112;28;20084;-59
2023/05/05 06:09:19;;;;;;;18.98;3.05;;;;;;;;;;5053355;28;20025;-60
2023/05/05 06:11:45;;;;;;;16.80;2.97;;;;;;;;;;5053336;28;20029;-59
2023/05/05 06:14:11;;;;;;;19.48;3.30;;;;;;;;;;5059441;28;20081;-59
2023/05/05 06:16:37;;;;;;;18.00;3.15;;;;;;;;;;5062100;28;20028;-60
2023/05/05 06:19:08;;;;;;;22.08;3.97;;;;;;;;;;5070228;28;20081;-62
2023/05/05 06:21:34;;;;;;;24.70;3.53;;;;;;;;;;5073101;28;20024;-59
2023/05/05 06:24:00;;;;;;;20.42;3.72;;;;;;;;;;5070910;28;20035;-63
2023/05/05 06:26:26;;;;;;;18.63;3.20;;;;;;;;;;5072160;28;20389;-59
2023/05/05 06:28:52;;;;;;;18.42;3.10;;;;;;;;;;5072214;28;20045;-58
2023/05/05 06:31:18;;;;;;;14.23;3.30;;;;;;;;;;5084033;28;20025;-59
2023/05/05 06:33:44;;;;;;;18.58;3.40;;;;;;;;;;5067758;28;20139;-58
2023/05/05 06:36:10;;;;;;;20.02;4.68;;;;;;;;;;5071407;28;20530;-58
2023/05/05 06:38:36;;;;;;;26.42;6.30;;;;;;;;;;5070821;28;20477;-59
2023/05/05 06:41:02;;;;;;;18.58;3.47;;;;;;;;;;5070735;28;20035;-59
2023/05/05 06:43:28;;;;;;;24.33;3.78;;;;;;;;;;5072037;28;20020;-59
2023/05/05 06:45:55;;;;;;;18.27;3.95;;;;;;;;;;5069077;28;20124;-61
2023/05/05 06:48:21;;;;;;;15.82;3.20;;;;;;;;;;5088016;28;20024;-60
2023/05/05 06:50:47;;;;;;;29.98;4.47;;;;;;;;;;5067258;28;20032;-59
2023/05/05 06:53:13;;;;;;;16.85;3.42;;;;;;;;;;5063832;28;20073;-60
2023/05/05 06:55:42;;;;;;;18.48;3.85;;;;;;;;;;5072258;28;20089;-60
2023/05/05 06:58:08;;;;;;;22.77;3.20;;;;;;;;;;5071807;28;20489;-59
2023/05/05 07:00:34;;;;;;;17.13;3.42;;;;;;;;;;5071040;28;20028;-59
2023/05/05 07:03:00;;;;;;;19.38;3.28;;;;;;;;;;5068811;28;20039;-59
2023/05/05 07:05:26;;;;;;;21.77;3.47;;;;;;;;;;5068718;28;20032;-59
2023/05/05 07:07:53;;;;;;;18.23;2.63;;;;;;;;;;5070343;28;20077;-59
2023/05/05 07:10:19;;;;;;;17.80;2.80;;;;;;;;;;5069222;28;20035;-59
2023/05/05 07:12:45;;;;;;;24.80;3.97;;;;;;;;;;5071734;28;20017;-59
2023/05/05 07:15:11;;;;;;;21.73;3.65;;;;;;;;;;5071711;28;20024;-59
2023/05/05 07:17:37;;;;;;;11.68;3.05;;;;;;;;;;5071986;28;20134;-58
2023/05/05 07:20:03;;;;;;;25.58;3.58;;;;;;;;;;5071279;28;20062;-59
2023/05/05 07:22:29;;;;;;;20.55;3.47;;;;;;;;;;5071911;28;20112;-60
2023/05/05 07:24:55;;;;;;;14.27;3.08;;;;;;;;;;5071830;28;20116;-59
2023/05/05 07:27:22;;;;;;;24.23;5.13;;;;;;;;;;5071637;28;20056;-59
2023/05/05 07:29:48;;;;;;;17.85;3.40;;;;;;;;;;5071578;28;20050;-59
2023/05/05 07:32:14;;;;;;;17.75;3.08;;;;;;;;;;5071518;28;20091;-60
2023/05/05 07:34:40;;;;;;;16.88;3.00;;;;;;;;;;5071479;28;20073;-59
2023/05/05 07:37:06;;;;;;;15.50;4.07;;;;;;;;;;5071669;28;20551;-59
2023/05/05 07:39:33;;;;;;;19.00;2.95;;;;;;;;;;5071314;28;20028;-59
2023/05/05 07:42:00;;;;;;;23.35;4.60;;;;;;;;;;5071584;28;20031;-59
2023/05/05 07:44:26;;;;;;;14.68;3.05;;;;;;;;;;5068064;28;20116;-60
2023/05/05 07:46:52;;;;;;;21.83;3.95;;;;;;;;;;5071304;28;20059;-59
2023/05/05 07:49:19;;;;;;;19.10;3.28;;;;;;;;;;5071528;28;20055;-59
2023/05/05 07:51:46;;;;;;;16.45;3.33;;;;;;;;;;5071348;28;20100;-60
2023/05/05 07:54:12;;;;;;;13.93;2.97;;;;;;;;;;5071317;28;20077;-60
2023/05/05 07:56:38;;;;;;;14.15;3.00;;;;;;;;;;5071300;28;20385;-59
2023/05/05 07:59:04;;;;;;;16.15;4.07;;;;;;;;;;5068593;28;20086;-60
2023/05/05 08:01:30;;;;;;;15.55;2.65;;;;;;;;;;5056036;28;20017;-59
2023/05/05 08:03:56;;;;;;;13.65;2.95;;;;;;;;;;5066617;28;20036;-59
2023/05/05 08:06:23;;;;;;;19.00;3.25;;;;;;;;;;5071219;28;20388;-60
2023/05/05 08:08:52;;;;;;;12.07;2.63;;;;;;;;;;5071337;28;20107;-59
2023/05/05 08:11:18;;;;;;;19.35;3.75;;;;;;;;;;5070991;28;20036;-60
2023/05/05 08:13:44;;;;;;;16.92;3.05;;;;;;;;;;5071092;28;20420;-61
2023/05/05 08:16:11;;;;;;;12.38;2.75;;;;;;;;;;5071461;28;20307;-59
2023/05/05 08:18:38;;;;;;;19.70;3.47;;;;;;;;;;5071518;28;20021;-61
2023/05/05 08:21:04;;;;;;;20.92;4.00;;;;;;;;;;5071098;28;20051;-60
2023/05/05 08:23:30;;;;;;;18.95;3.33;;;;;;;;;;5070779;28;20031;-60
2023/05/05 08:25:57;;;;;;;18.27;3.67;;;;;;;;;;5071075;28;20103;-60
2023/05/05 08:28:23;;;;;;;17.33;3.47;;;;;;;;;;5070737;28;20085;-60
2023/05/05 08:30:49;;;;;;;19.05;3.33;;;;;;;;;;5071539;28;20047;-61
2023/05/05 08:33:15;;;;;;;18.30;3.40;;;;;;;;;;5075381;28;20017;-61
2023/05/05 08:35:42;;;;;;;19.92;3.55;;;;;;;;;;5075112;28;20031;-59
2023/05/05 08:38:08;;;;;;;16.90;3.42;;;;;;;;;;5074876;28;20282;-61
2023/05/05 08:40:36;;;;;;;20.92;3.15;;;;;;;;;;5075133;28;20503;-60
2023/05/05 08:43:02;;;;;;;13.00;3.13;;;;;;;;;;5074849;28;20021;-60
2023/05/05 08:45:29;;;;;;;21.75;4.03;;;;;;;;;;5074892;28;20024;-62
2023/05/05 08:48:01;;;;;;;20.20;3.53;;;;;;;;;;5073568;28;20358;-60
2023/05/05 08:50:27;;;;;;;;;;;;;;;;;;5075398;28;20083;-60
2023/05/05 08:53:09;;;;;;;26.30;5.43;;;;;;;;;;5074731;28;20383;-60
2023/05/05 08:55:37;;;;;;;20.27;3.90;;;;;;;;;;5074455;28;20496;-61
2023/05/05 08:58:04;;;;;;;18.05;3.80;;;;;;;;;;5074348;28;20530;-61
2023/05/05 09:00:30;;;;;;;18.20;3.65;;;;;;;;;;5074658;28;20270;-61
2023/05/05 09:02:57;;;;;;;15.40;3.35;;;;;;;;;;5073185;28;20107;-61
2023/05/05 09:05:23;;;;;;;17.15;4.15;;;;;;;;;;5074179;28;20097;-59
2023/05/05 09:07:50;;;;;;;11.43;3.05;;;;;;;;;;5072944;28;20025;-59
2023/05/05 09:10:16;;;;;;;13.23;3.25;;;;;;;;;;5074185;28;20040;-60
2023/05/05 09:12:42;;;;;;;16.08;3.47;;;;;;;;;;5074254;28;20024;-60
2023/05/05 09:15:09;;;;;;;13.98;2.92;;;;;;;;;;5072878;28;20423;-60
2023/05/05 09:17:35;;;;;;;12.23;2.90;;;;;;;;;;5074344;28;20031;-60
2023/05/05 09:20:08;;;;;;;15.68;2.90;;;;;;;;;;5073939;28;20024;-59
2023/05/05 09:22:35;;;;;;;11.52;2.83;;;;;;;;;;5072859;28;20028;-61
2023/05/05 09:25:02;;;;;;;17.42;3.22;;;;;;;;;;5068673;28;20509;-61
2023/05/05 09:27:28;;;;;;;13.38;3.58;;;;;;;;;;5073971;28;20054;-59
2023/05/05 09:29:55;;;;;;;16.17;4.00;;;;;;;;;;5073877;28;20094;-60
2023/05/05 09:32:21;;;;;;;17.00;3.53;;;;;;;;;;5074040;28;20031;-60
2023/05/05 09:34:58;;;;;;;16.00;4.25;;;;;;;;;;5073820;28;20085;-60
2023/05/05 09:37:30;;;;;;;10.48;2.83;;;;;;;;;;5074005;28;20078;-59
2023/05/05 09:39:59;;;;;;;18.02;3.03;;;;;;;;;;5071419;28;20032;-59
2023/05/05 09:42:26;;;;;;;14.05;2.70;;;;;;;;;;5072558;28;20037;-60
2023/05/05 09:44:52;;;;;;;18.35;3.15;;;;;;;;;;5073453;28;20060;-59
2023/05/05 09:47:18;;;;;;;19.85;3.40;;;;;;;;;;5073733;28;20465;-60
2023/05/05 09:49:44;;;;;;;16.02;3.90;;;;;;;;;;5073629;28;20032;-60
2023/05/05 09:52:14;;;;;;;16.83;3.05;;;;;;;;;;5073562;28;20243;-61
2023/05/05 09:54:40;;;;;;;17.25;3.35;;;;;;;;;;5073779;28;20384;-62
2023/05/05 09:57:07;;;;;;;16.58;3.97;;;;;;;;;;5073737;28;20028;-60
2023/05/05 09:59:33;;;;;;;12.95;3.15;;;;;;;;;;5068698;28;20159;-60
2023/05/05 10:02:12;;;;;;;15.57;3.17;;;;;;;;;;5073277;28;20476;-59
2023/05/05 10:04:38;;;;;;;10.35;3.03;;;;;;;;;;5073420;28;20032;-60
2023/05/05 10:07:04;;;;;;;13.40;3.55;;;;;;;;;;5073506;28;20393;-60
2023/05/05 10:09:31;;;;;;;9.00;3.63;;;;;;;;;;5073331;28;20032;-60
2023/05/05 10:11:58;;;;;;;17.70;3.70;;;;;;;;;;5059446;28;20021;-59
2023/05/05 10:14:26;;;;;;;11.77;3.30;;;;;;;;;;5072939;28;20056;-59
2023/05/05 10:16:53;;;;;;;13.32;3.45;;;;;;;;;;5073141;28;20074;-59
2023/05/05 10:19:20;;;;;;;18.70;3.90;;;;;;;;;;5073186;28;20028;-60
2023/05/05 10:21:53;;;;;;;15.38;4.20;;;;;;;;;;5073180;28;20473;-59
2023/05/05 10:24:21;;;;;;;15.63;3.90;;;;;;;;;;5072845;28;20390;-60
2023/05/05 10:26:48;;;;;;;17.67;3.58;;;;;;;;;;5073010;28;20465;-60
2023/05/05 10:29:25;;;;;;;13.48;3.45;;;;;;;;;;5072648;28;20053;-59
2023/05/05 10:31:52;;;;;;;15.23;3.55;;;;;;;;;;5073085;28;20496;-60
2023/05/05 10:34:34;;;;;;;23.80;4.15;;;;;;;;;;5072916;28;20029;-60
2023/05/05 10:37:00;;;;;;;16.42;4.47;;;;;;;;;;5071516;28;20123;-60
2023/05/05 10:39:27;;;;;;;13.48;3.63;;;;;;;;;;5072904;28;20078;-60
2023/05/05 10:41:53;;;;;;;10.48;3.47;;;;;;;;;;5072641;28;20088;-59
2023/05/05 10:44:19;;;;;;;12.40;3.92;;;;;;;;;;5072647;28;20028;-59
2023/05/05 10:46:45;;;;;;;15.10;4.03;;;;;;;;;;5072708;28;20470;-59
2023/05/05 10:49:20;;;;;;;14.43;4.05;;;;;;;;;;5072824;28;20056;-60
2023/05/05 10:51:49;;;;;;;16.20;3.83;;;;;;;;;;5072546;28;20030;-61
2023/05/05 10:54:32;;;;;;;11.75;4.30;;;;;;;;;;5071697;28;20413;-60
2023/05/05 10:57:03;;;;;;;13.60;4.10;;;;;;;;;;5072254;28;20040;-61
2023/05/05 10:59:35;;;;;;;22.80;5.18;;;;;;;;;;5072292;28;20025;-59
2023/05/05 11:02:17;;;;;;;15.23;4.68;;;;;;;;;;5072226;28;20021;-59
2023/05/05 11:04:43;;;;;;;18.05;4.57;;;;;;;;;;5072099;28;20036;-60
2023/05/05 11:07:09;;;;;;;12.60;3.92;;;;;;;;;;5071886;28;20021;-59
2023/05/05 11:09:37;;;;;;;19.52;4.72;;;;;;;;;;5072259;28;20032;-59
2023/05/05 11:12:06;;;;;;;17.88;4.80;;;;;;;;;;5072290;28;20024;-59
2023/05/05 11:14:32;;;;;;;18.25;5.88;;;;;;;;;;5072238;28;20025;-60
2023/05/05 11:16:58;;;;;;;16.33;4.85;;;;;;;;;;5072164;28;20103;-60
2023/05/05 11:19:43;;;;;;;17.08;4.15;;;;;;;;;;5071859;28;20027;-60
2023/05/05 11:22:10;;;;;;;14.15;4.05;;;;;;;;;;5071874;28;20017;-61
2023/05/05 11:24:36;;;;;;;18.83;5.07;;;;;;;;;;5066051;28;20098;-59
2023/05/05 11:27:03;;;;;;;11.50;4.03;;;;;;;;;;5071082;28;20021;-59
2023/05/05 11:29:47;;;;;;;15.75;4.75;;;;;;;;;;5071434;28;20045;-59
2023/05/05 11:32:18;;;;;;;20.88;4.50;;;;;;;;;;5071627;28;20095;-59
2023/05/05 11:34:49;;;;;;;13.48;4.97;;;;;;;;;;5069191;28;20114;-60
2023/05/05 11:37:16;;;;;;;18.90;4.57;;;;;;;;;;5064812;28;20021;-59
2023/05/05 11:39:42;;;;;;;7.80;3.33;;;;;;;;;;5071901;28;20056;-59
2023/05/05 11:42:24;;;;;;;12.90;4.57;;;;;;;;;;5071619;28;20052;-60
2023/05/05 11:44:50;;;;;;;21.73;4.18;;;;;;;;;;5071505;28;20037;-60
2023/05/05 11:47:16;;;;;;;15.32;4.88;;;;;;;;;;5063051;28;20044;-59
2023/05/05 11:49:42;;;;;;;15.95;3.90;;;;;;;;;;5066172;28;20469;-60
2023/05/05 11:52:09;;;;;;;16.30;4.47;;;;;;;;;;5071294;28;20048;-59
2023/05/05 11:54:36;;;;;;;14.30;3.65;;;;;;;;;;5071501;28;20021;-59
2023/05/05 11:57:07;;;;;;;18.95;3.83;;;;;;;;;;5071455;28;20017;-60
2023/05/05 11:59:36;;;;;;;14.45;4.07;;;;;;;;;;5071396;28;20043;-59
2023/05/05 12:02:03;;;;;;;12.18;3.45;;;;;;;;;;5071712;28;20021;-59
2023/05/05 12:04:30;;;;;;;13.25;3.40;;;;;;;;;;5070996;28;20481;-59
2023/05/05 12:06:57;;;;;;;13.68;3.13;;;;;;;;;;5071360;28;20020;-60
2023/05/05 12:09:23;;;;;;;12.57;2.80;;;;;;;;;;5068026;28;20551;-59
2023/05/05 12:11:49;;;;;;;17.65;3.20;;;;;;;;;;5071179;28;20064;-59
2023/05/05 12:14:15;;;;;;;9.70;2.50;;;;;;;;;;5071189;28;20473;-60
2023/05/05 12:16:53;;;;;;;17.55;3.75;;;;;;;;;;5071172;28;20040;-59
2023/05/05 12:19:19;;;;;;;9.23;2.97;;;;;;;;;;5071208;28;20266;-59
2023/05/05 12:21:45;;;;;;;11.27;3.22;;;;;;;;;;5071189;28;20032;-59
2023/05/05 12:24:14;;;;;;;21.60;4.03;;;;;;;;;;5070965;28;20428;-59
2023/05/05 12:26:40;;;;;;;14.40;3.40;;;;;;;;;;5065847;28;20055;-59
2023/05/05 12:29:06;;;;;;;14.10;3.45;;;;;;;;;;5070836;28;20056;-58
2023/05/05 12:31:42;;;;;;;17.02;4.80;;;;;;;;;;5071529;28;20186;-58
2023/05/05 12:34:09;;;;;;;18.42;2.80;;;;;;;;;;5068826;28;20081;-59
2023/05/05 12:36:35;;;;;;;14.45;3.33;;;;;;;;;;5067176;28;20372;-58
2023/05/05 12:39:03;;;;;;;13.27;3.05;;;;;;;;;;5071123;28;20017;-59
2023/05/05 12:41:30;;;;;;;14.95;3.45;;;;;;;;;;5070979;28;20024;-58
2023/05/05 12:43:56;;;;;;;10.82;2.92;;;;;;;;;;5070772;28;20035;-59
2023/05/05 12:46:22;;;;;;;14.40;3.10;;;;;;;;;;5070745;28;20032;-59
2023/05/05 12:48:59;;;;;;;8.65;2.28;;;;;;;;;;5071065;28;20019;-59
2023/05/05 12:51:25;;;;;;;11.45;2.55;;;;;;;;;;5068601;28;20410;-59
2023/05/05 12:54:01;;;;;;;9.05;1.88;;;;;;;;;;5069509;28;20028;-59
2023/05/05 12:56:39;;;;;;;14.73;2.70;;;;;;;;;;5070733;28;20035;-59
2023/05/05 12:59:06;;;;;;;9.15;2.40;;;;;;;;;;5070699;28;20024;-59
2023/05/05 13:01:33;;;;;;;11.30;2.70;;;;;;;;;;5070822;28;20028;-59
2023/05/05 13:04:12;;;;;;;7.95;2.22;;;;;;;;;;5070593;28;20039;-59
2023/05/05 13:06:42;;;;;;;9.32;2.33;;;;;;;;;;5070673;28;20021;-59
2023/05/05 13:09:09;;;;;;;11.82;2.80;;;;;;;;;;5067887;28;20409;-59
2023/05/05 13:11:36;;;;;;;12.20;1.80;;;;;;;;;;5070598;28;20025;-59
2023/05/05 13:14:02;;;;;;;10.75;2.38;;;;;;;;;;5070782;28;20108;-59
2023/05/05 13:16:29;;;;;;;12.10;2.40;;;;;;;;;;5070823;28;20020;-59
2023/05/05 13:18:56;;;;;;;11.18;1.95;;;;;;;;;;5074203;28;20043;-59
2023/05/05 13:21:22;;;;;;;10.40;2.13;;;;;;;;;;5074143;28;20025;-59
2023/05/05 13:23:48;;;;;;;9.80;2.95;;;;;;;;;;5074084;28;20032;-59
2023/05/05 13:26:14;;;;;;;8.38;2.20;;;;;;;;;;5073675;28;20017;-59
2023/05/05 13:28:41;;;;;;;13.38;2.05;;;;;;;;;;5069045;28;20037;-59
2023/05/05 13:31:07;;;;;;;14.10;2.03;;;;;;;;;;5074230;28;20163;-59
2023/05/05 13:33:34;;;;;;;15.50;2.22;;;;;;;;;;5074100;28;20027;-59
2023/05/05 13:36:00;;;;;;;9.20;2.10;;;;;;;;;;5074072;28;20025;-59
2023/05/05 13:38:26;;;;;;;12.27;2.15;;;;;;;;;;5074019;28;20067;-60
2023/05/05 13:40:52;;;;;;;11.27;2.20;;;;;;;;;;5069874;28;20505;-59
2023/05/05 13:43:18;;;;;;;8.82;1.95;;;;;;;;;;5073897;28;20020;-59
2023/05/05 13:45:45;;;;;;;11.60;2.05;;;;;;;;;;5073703;28;20056;-59
2023/05/05 13:48:11;;;;;;;8.95;2.13;;;;;;;;;;5073892;28;20028;-60
2023/05/05 13:50:37;;;;;;;9.07;2.53;;;;;;;;;;5073644;28;20083;-59
2023/05/05 13:53:03;;;;;;;11.75;2.78;;;;;;;;;;5073615;28;20056;-59
2023/05/05 13:55:29;;;;;;;13.15;2.55;;;;;;;;;;5073641;28;20405;-59
2023/05/05 13:57:55;;;;;;;15.90;2.28;;;;;;;;;;5071055;28;20555;-60
2023/05/05 14:00:22;;;;;;;9.00;2.47;;;;;;;;;;5065225;28;20039;-59
2023/05/05 14:02:48;;;;;;;12.63;2.13;;;;;;;;;;5066965;28;20036;-59
2023/05/05 14:05:14;;;;;;;10.02;1.85;;;;;;;;;;5073467;28;20089;-61
2023/05/05 14:07:40;;;;;;;10.98;2.33;;;;;;;;;;5073399;28;20035;-59
2023/05/05 14:10:06;;;;;;;11.90;1.83;;;;;;;;;;5073307;28;20425;-59
2023/05/05 14:12:32;;;;;;;7.43;2.13;;;;;;;;;;5072227;28;20114;-60
2023/05/05 14:14:59;;;;;;;10.48;2.22;;;;;;;;;;5073157;28;20504;-59
2023/05/05 14:17:25;;;;;;;10.85;1.98;;;;;;;;;;5073042;28;20028;-59
2023/05/05 14:19:51;;;;;;;8.32;1.85;;;;;;;;;;5069838;28;20021;-60
2023/05/05 14:22:17;;;;;;;12.25;2.05;;;;;;;;;;5073047;28;20103;-58
2023/05/05 14:24:43;;;;;;;12.05;2.35;;;;;;;;;;5072811;28;20120;-59
2023/05/05 14:27:09;;;;;;;12.15;2.05;;;;;;;;;;5073023;28;20021;-59
2023/05/05 14:29:35;;;;;;;11.93;2.30;;;;;;;;;;5072357;28;20122;-59
2023/05/05 14:32:01;;;;;;;10.05;2.53;;;;;;;;;;5072732;28;20390;-60
2023/05/05 14:34:27;;;;;;;7.10;1.75;;;;;;;;;;5070042;28;20107;-59